Time;durP1;ratioP1;P1;durP2;ratioP2;P2;SDS_P1;SDS_P2;PMS_P1;PMS_P2;Temp;Humidity;BMP_temperature;BMP_pressure;BME280_temperature;BME280_humidity;BME280_pressure;Samples;Min_cycle;Max_cycle;Signal;HPM_P1;HPM_P2
2022/12/15 00:40:21;;;;;;;21.15;11.90;;;;;;;4.34;100.00;96230.19;5044101;28;20894;-58
2022/12/15 00:42:47;;;;;;;24.77;13.40;;;;;;;4.78;100.00;96298.72;5057501;28;20060;-58
2022/12/15 00:45:15;;;;;;;23.02;13.63;;;;;;;4.79;100.00;96311.31;5062347;28;20057;-58
2022/12/15 00:47:42;;;;;;;26.75;14.25;;;;;;;4.41;100.00;96230.38;5062672;28;20086;-58
2022/12/15 01:20:25;;;;;;;26.25;14.45;;;;;;;5.09;100.00;96293.31;5063699;28;20053;-59
2022/12/15 01:22:54;;;;;;;25.67;13.80;;;;;;;5.09;100.00;96298.78;5063937;28;20057;-59
2022/12/15 01:25:23;;;;;;;25.17;14.23;;;;;;;5.13;100.00;96272.22;5063868;28;20103;-59
2022/12/15 01:27:51;;;;;;;24.58;13.55;;;;;;;5.15;100.00;96264.44;5063987;28;20048;-59
2022/12/15 01:30:21;;;;;;;31.17;15.95;;;;;;;5.10;100.00;96272.94;5062510;28;20131;-59
2022/12/15 01:32:48;;;;;;;29.13;15.57;;;;;;;4.96;100.00;96278.06;5062353;28;20049;-58
2022/12/15 01:35:16;;;;;;;31.65;16.52;;;;;;;4.96;100.00;96283.53;5064149;28;20139;-58
2022/12/15 01:37:43;;;;;;;27.05;14.93;;;;;;;4.90;100.00;96258.28;5067099;28;20055;-58
2022/12/15 01:43:02;;;;;;;28.15;14.60;;;;;;;4.90;100.00;96246.56;5051470;28;20053;-59
2022/12/15 01:45:28;;;;;;;24.27;13.90;;;;;;;4.80;100.00;96258.03;5047125;28;20532;-59
2022/12/15 01:47:59;;;;;;;23.05;13.30;;;;;;;4.81;100.00;96259.63;5046986;28;20136;-58
2022/12/15 01:50:28;;;;;;;20.20;12.02;;;;;;;4.41;100.00;96218.63;5045579;28;20107;-59
2022/12/15 01:52:55;;;;;;;21.73;11.52;;;;;;;4.55;100.00;96228.00;5046629;28;20293;-59
2022/12/15 01:55:27;;;;;;;18.73;10.85;;;;;;;4.84;100.00;96253.44;5046769;28;20131;-58
2022/12/15 01:57:57;;;;;;;20.90;10.85;;;;;;;4.64;100.00;96250.59;5047050;28;20077;-59
2022/12/15 02:00:24;;;;;;;21.20;11.75;;;;;;;4.59;100.00;96253.59;5046803;28;20099;-58
2022/12/15 02:02:50;;;;;;;21.92;12.55;;;;;;;4.65;100.00;96262.34;5046473;28;20049;-58
2022/12/15 02:05:19;;;;;;;20.02;12.05;;;;;;;4.82;100.00;96270.22;5046517;28;20049;-59
2022/12/15 02:07:45;;;;;;;21.55;12.05;;;;;;;4.79;100.00;96267.44;5046693;28;20056;-57
2022/12/15 02:10:15;;;;;;;21.17;12.23;;;;;;;4.85;100.00;96276.97;5045033;28;20582;-59
2022/12/15 02:12:50;;;;;;;21.60;13.02;;;;;;;4.77;100.00;96280.69;5046628;28;20136;-58
2022/12/15 02:15:20;;;;;;;22.63;12.55;;;;;;;4.87;100.00;96291.94;5046501;28;20136;-59
2022/12/15 02:18:13;;;;;;;24.70;13.90;;;;;;;4.92;100.00;96277.97;5046505;28;20065;-58
2022/12/15 02:21:00;;;;;;;24.92;13.88;;;;;;;4.97;100.00;96271.41;5038987;28;20057;-59
2022/12/15 02:23:54;;;;;;;22.02;12.77;;;;;;;5.03;100.00;96283.72;5046394;28;20049;-58
2022/12/15 02:26:39;;;;;;;20.65;12.80;;;;;;;4.96;100.00;96289.03;5044642;28;20131;-60
2022/12/15 02:29:25;;;;;;;19.52;12.18;;;;;;;4.97;100.00;96263.19;5046159;28;20059;-59
2022/12/15 02:32:06;;;;;;;26.98;13.75;;;;;;;4.99;100.00;96266.38;5044822;28;20159;-59
2022/12/15 02:34:48;;;;;;;22.05;13.00;;;;;;;4.86;100.00;96235.47;5046298;28;20064;-59
2022/12/15 02:37:22;;;;;;;21.20;13.07;;;;;;;4.81;100.00;96243.97;5045956;28;20132;-58
2022/12/15 02:39:48;;;;;;;28.35;16.05;;;;;;;4.79;100.00;96245.47;5046671;28;20587;-58
2022/12/15 02:42:15;;;;;;;27.55;16.25;;;;;;;4.77;100.00;96239.53;5053301;28;20117;-59
2022/12/15 02:44:58;;;;;;;27.70;15.48;;;;;;;4.75;100.00;96261.03;5065939;28;20143;-58
2022/12/15 02:47:46;;;;;;;20.70;11.45;;;;;;;4.75;100.00;96263.78;5065088;28;20048;-59
2022/12/15 02:50:28;;;;;;;26.75;15.48;;;;;;;4.76;100.00;96251.66;5066232;28;20052;-58
2022/12/15 02:53:07;;;;;;;27.10;14.98;;;;;;;4.31;100.00;96197.19;5066422;28;20509;-58
2022/12/15 02:55:47;;;;;;;31.40;16.42;;;;;;;4.54;100.00;96209.16;5066100;28;20479;-58
2022/12/15 02:58:43;;;;;;;32.05;17.40;;;;;;;4.69;100.00;96252.28;5065821;28;20685;-58
2022/12/15 03:01:33;;;;;;;38.58;18.05;;;;;;;3.95;100.00;96148.84;5064321;28;20131;-58
2022/12/15 03:04:02;;;;;;;43.97;20.38;;;;;;;4.65;100.00;96257.66;5065869;28;20090;-59
2022/12/15 03:06:28;;;;;;;45.25;23.05;;;;;;;4.76;100.00;96252.44;5065104;28;20474;-59
2022/12/15 03:08:55;;;;;;;45.47;23.35;;;;;;;4.78;100.00;96241.94;5065688;28;20105;-58
2022/12/15 03:11:22;;;;;;;47.60;27.10;;;;;;;4.93;100.00;96262.31;5065279;28;20091;-59
2022/12/15 03:13:49;;;;;;;47.83;25.35;;;;;;;5.02;100.00;96254.69;5065148;28;20486;-58
2022/12/15 03:16:15;;;;;;;53.58;26.17;;;;;;;5.04;100.00;96247.72;5065379;28;20052;-59
2022/12/15 03:18:42;;;;;;;53.72;25.45;;;;;;;5.00;100.00;96226.78;5064049;28;20079;-59
2022/12/15 03:21:09;;;;;;;45.90;24.05;;;;;;;4.80;100.00;96236.91;5065561;28;20060;-59
2022/12/15 03:23:35;;;;;;;51.75;25.75;;;;;;;4.90;100.00;96219.09;5065259;28;20138;-57
2022/12/15 03:26:02;;;;;;;49.15;24.10;;;;;;;4.96;100.00;96223.19;5065161;28;20521;-59
2022/12/15 03:28:29;;;;;;;47.60;24.15;;;;;;;5.02;100.00;96233.53;5063921;28;20143;-59
2022/12/15 03:30:55;;;;;;;56.03;25.48;;;;;;;5.03;100.00;96204.13;5063360;28;20139;-59
2022/12/15 03:33:22;;;;;;;48.28;22.70;;;;;;;5.09;100.00;96199.97;5063808;28;20623;-59
2022/12/15 03:35:49;;;;;;;46.78;22.17;;;;;;;4.94;100.00;96204.31;5065118;28;20067;-58
2022/12/15 03:38:17;;;;;;;44.40;19.80;;;;;;;4.97;100.00;96211.03;5063546;28;20136;-58
2022/12/15 03:40:44;;;;;;;43.90;21.17;;;;;;;5.00;100.00;96202.09;5063411;28;20090;-60
2022/12/15 03:43:10;;;;;;;40.75;20.27;;;;;;;4.63;100.00;96120.09;5049282;28;20044;-58
2022/12/15 03:45:37;;;;;;;42.25;21.27;;;;;;;5.00;100.00;96185.63;5044839;28;20052;-58
2022/12/15 03:48:03;;;;;;;43.25;23.38;;;;;;;5.11;100.00;96214.94;5044922;28;20049;-58
2022/12/15 03:50:30;;;;;;;54.53;26.95;;;;;;;4.94;100.00;96181.56;5043333;28;20106;-58
2022/12/15 03:52:59;;;;;;;53.97;28.27;;;;;;;5.18;100.00;96203.34;5043449;28;20106;-58
2022/12/15 03:55:27;;;;;;;66.35;31.60;;;;;;;5.07;100.00;96202.28;5044516;28;20494;-58
2022/12/15 03:57:54;;;;;;;50.25;24.30;;;;;;;4.68;100.00;96141.75;5044792;28;20045;-58
2022/12/15 04:00:26;;;;;;;38.38;19.27;;;;;;;5.15;100.00;96198.56;5044902;28;20565;-58
2022/12/15 04:02:52;;;;;;;39.75;18.58;;;;;;;5.08;100.00;96201.13;5044723;28;20056;-59
2022/12/15 04:05:25;;;;;;;35.60;18.17;;;;;;;5.05;100.00;96215.56;5043091;28;20488;-58
2022/12/15 04:07:53;;;;;;;34.37;17.60;;;;;;;5.02;100.00;96219.00;5044597;28;20172;-58
2022/12/15 04:10:21;;;;;;;59.85;24.05;;;;;;;4.94;100.00;96209.00;5044592;28;20316;-58
2022/12/15 04:12:48;;;;;;;41.05;18.00;;;;;;;4.91;100.00;96216.00;5044563;28;20053;-58
2022/12/15 04:15:15;;;;;;;32.00;16.10;;;;;;;4.92;100.00;96227.75;5044207;28;20610;-58
2022/12/15 04:17:42;;;;;;;38.58;20.63;;;;;;;4.86;100.00;96215.47;5043977;28;20594;-59
2022/12/15 04:20:09;;;;;;;29.13;16.35;;;;;;;4.80;100.00;96203.16;5044361;28;20463;-58
2022/12/15 04:22:43;;;;;;;27.27;15.85;;;;;;;4.47;100.00;96168.63;5044181;28;20094;-58
2022/12/15 05:31:51;;;;;;;95.47;43.00;;;;;;;4.58;100.00;96240.22;5067290;28;20056;-58
2022/12/15 05:34:23;;;;;;;88.32;40.92;;;;;;;4.25;100.00;96221.31;5067010;28;20553;-58
2022/12/15 05:36:49;;;;;;;96.00;43.47;;;;;;;4.60;100.00;96263.41;5065664;28;20053;-58
2022/12/15 05:39:16;;;;;;;78.40;37.90;;;;;;;4.49;100.00;96248.59;5065983;28;20500;-59
2022/12/15 05:41:43;;;;;;;68.38;33.78;;;;;;;4.54;100.00;96256.59;5063464;28;20045;-58
2022/12/15 05:44:10;;;;;;;74.82;36.70;;;;;;;4.47;100.00;96250.13;5047812;28;20110;-59
2022/12/15 05:46:37;;;;;;;73.80;37.38;;;;;;;4.52;100.00;96258.88;5046766;28;20064;-59
2022/12/15 05:49:05;;;;;;;74.65;36.15;;;;;;;4.42;100.00;96259.41;5047117;28;20091;-59
2022/12/15 05:51:32;;;;;;;77.03;38.20;;;;;;;4.42;100.00;96253.91;5046475;28;20148;-58
2022/12/15 05:53:59;;;;;;;65.10;30.75;;;;;;;4.37;100.00;96234.97;5046423;28;20069;-61
2022/12/15 05:56:27;;;;;;;70.40;32.40;;;;;;;4.48;100.00;96263.47;5047075;28;20144;-59
2022/12/15 05:58:56;;;;;;;59.53;29.02;;;;;;;4.43;100.00;96260.97;5046705;28;20132;-59
2022/12/15 06:01:24;;;;;;;59.03;28.83;;;;;;;4.43;100.00;96260.97;5045099;28;20136;-60
2022/12/15 06:03:51;;;;;;;65.75;34.67;;;;;;;4.25;100.00;96231.50;5045261;28;20075;-58
2022/12/15 06:06:18;;;;;;;83.18;39.67;;;;;;;4.24;100.00;96235.34;5046627;28;20122;-59
2022/12/15 06:08:45;;;;;;;76.38;38.33;;;;;;;4.26;100.00;96233.88;5046540;28;20140;-59
2022/12/15 06:11:17;;;;;;;89.07;45.35;;;;;;;4.54;100.00;96264.81;5047067;28;20084;-59
2022/12/15 06:13:44;;;;;;;109.57;52.00;;;;;;;3.84;100.00;96172.41;5046271;28;20144;-59
2022/12/15 06:16:10;;;;;;;126.45;69.60;;;;;;;4.53;100.00;96287.09;5046500;28;20045;-59
2022/12/15 06:18:41;;;;;;;123.88;60.45;;;;;;;3.80;100.00;96182.47;5046815;28;20512;-59
2022/12/15 06:21:16;;;;;;;225.18;98.38;;;;;;;4.23;100.00;96267.47;5046765;28;20163;-59
2022/12/15 06:23:44;;;;;;;222.45;102.63;;;;;;;4.64;100.00;96294.47;5046074;28;20084;-59
2022/12/15 06:26:17;;;;;;;116.40;57.80;;;;;;;4.68;100.00;96295.34;5046540;28;20049;-58
2022/12/15 06:28:44;;;;;;;;;;;;;;;4.68;100.00;96300.84;5046578;28;20084;-59
2022/12/15 06:31:11;;;;;;;54.50;28.88;;;;;;;4.76;100.00;96301.03;5046643;28;19959;-59
2022/12/15 06:33:39;;;;;;;56.03;30.13;;;;;;;4.86;100.00;96316.97;5046168;28;20111;-59
2022/12/15 06:36:12;;;;;;;90.25;42.33;;;;;;;5.01;100.00;96318.97;5046109;28;20139;-59
2022/12/15 06:38:42;;;;;;;46.38;27.50;;;;;;;4.90;100.00;96284.97;5046552;28;20098;-59
2022/12/15 06:41:14;;;;;;;55.42;34.25;;;;;;;5.25;100.00;96318.81;5044571;28;20053;-57
2022/12/15 06:43:41;;;;;;;52.00;29.10;;;;;;;4.92;100.00;96277.97;5063934;28;20052;-60
2022/12/15 06:46:08;;;;;;;41.03;23.83;;;;;;;3.20;100.00;95982.88;5065645;28;20055;-57
2022/12/15 06:48:35;;;;;;;56.17;29.55;;;;;;;5.59;100.00;96342.81;5065937;28;20048;-58
2022/12/15 06:51:06;;;;;;;61.92;35.03;;;;;;;5.54;100.00;96332.06;5066170;28;20140;-59
2022/12/15 06:53:52;;;;;;;54.60;30.48;;;;;;;5.70;100.00;96347.41;5065893;28;20056;-58
2022/12/15 06:56:23;;;;;;;34.25;19.60;;;;;;;5.80;100.00;96357.06;5065844;28;20106;-58
2022/12/15 06:58:58;;;;;;;29.65;17.08;;;;;;;5.92;100.00;96363.28;5065787;28;20052;-58
2022/12/15 07:01:25;;;;;;;25.90;14.07;;;;;;;6.03;100.00;96371.78;5065625;28;20106;-56
2022/12/15 07:03:52;;;;;;;30.85;16.63;;;;;;;5.91;100.00;96375.41;5065490;28;20504;-57
2022/12/15 07:06:19;;;;;;;32.83;17.80;;;;;;;6.00;100.00;96367.00;5065469;28;20087;-60
2022/12/15 07:08:52;;;;;;;30.60;18.40;;;;;;;4.32;100.00;96117.34;5053653;28;20127;-59
2022/12/15 07:11:20;;;;;;;29.85;17.60;;;;;;;5.43;100.00;96303.56;5043322;28;20053;-55
2022/12/15 07:13:51;;;;;;;31.90;17.38;;;;;;;5.95;100.00;96381.00;5044797;28;20059;-59
2022/12/15 07:16:20;;;;;;;32.28;18.05;;;;;;;6.12;100.00;96386.13;5044526;28;20083;-61
2022/12/15 07:18:47;;;;;;;34.30;19.95;;;;;;;6.33;100.00;96375.59;5044687;28;20048;-55
2022/12/15 07:21:14;;;;;;;20.23;12.30;;;;;;;6.31;100.00;96358.66;5044897;28;20504;-60
2022/12/15 07:23:40;;;;;;;19.60;11.43;;;;;;;6.23;100.00;96365.16;5044689;28;20195;-60
2022/12/15 07:26:24;;;;;;;20.20;12.93;;;;;;;6.16;100.00;96376.00;5044401;28;20061;-53
2022/12/15 07:28:52;;;;;;;28.42;17.35;;;;;;;5.86;100.00;96328.19;5044290;28;20322;-53
2022/12/15 07:31:20;;;;;;;30.67;17.17;;;;;;;6.24;100.00;96388.75;5043746;28;20060;-57
2022/12/15 07:33:48;;;;;;;24.13;14.02;;;;;;;5.79;100.00;96300.50;5038448;28;20237;-56
2022/12/15 07:36:14;;;;;;;29.85;16.13;;;;;;;6.18;100.00;96390.97;5041496;28;20044;-61
2022/12/15 07:38:41;;;;;;;28.42;16.52;;;;;;;5.88;100.00;96315.66;5044106;28;20178;-55
2022/12/15 07:41:08;;;;;;;31.70;21.05;;;;;;;5.86;100.00;96306.19;5044521;28;20057;-62
2022/12/15 07:43:35;;;;;;;33.55;25.15;;;;;;;6.25;100.00;96379.34;5043722;28;20438;-56
2022/12/15 07:46:03;;;;;;;54.00;34.97;;;;;;;6.07;100.00;96328.66;5044539;28;20135;-56
2022/12/15 07:48:31;;;;;;;43.58;31.13;;;;;;;6.66;100.00;96378.69;5043383;28;20463;-59
2022/12/15 07:50:58;;;;;;;25.85;16.75;;;;;;;7.03;100.00;96393.63;5043331;28;20072;-56
2022/12/15 07:53:35;;;;;;;18.85;12.10;;;;;;;7.12;100.00;96396.94;5042936;28;20060;-60
2022/12/15 07:56:04;;;;;;;23.05;13.43;;;;;;;7.17;100.00;96393.91;5044046;28;20055;-58
2022/12/15 07:58:34;;;;;;;72.82;26.90;;;;;;;7.29;100.00;96379.94;5043374;28;20085;-60
2022/12/15 08:01:03;;;;;;;26.52;14.95;;;;;;;7.27;100.00;96378.72;5043816;28;20053;-55
2022/12/15 08:03:30;;;;;;;25.45;15.00;;;;;;;7.45;100.00;96386.16;5042047;28;20642;-54
2022/12/15 08:06:04;;;;;;;21.52;13.95;;;;;;;7.56;100.00;96391.84;5041938;28;20359;-57
2022/12/15 08:08:31;;;;;;;17.90;12.90;;;;;;;7.79;100.00;96386.34;5041924;28;20141;-59
2022/12/15 08:11:09;;;;;;;19.42;13.35;;;;;;;7.85;100.00;96404.16;5042368;28;20056;-59
2022/12/15 08:13:37;;;;;;;16.67;9.75;;;;;;;8.12;97.55;96356.16;5031256;28;20059;-62
2022/12/15 08:16:24;;;;;;;16.77;9.32;;;;;;;8.48;96.95;96388.66;5030500;28;20049;-56
2022/12/15 08:18:50;;;;;;;8.90;5.93;;;;;;;8.17;92.80;96351.09;5041701;28;20055;-61
2022/12/15 08:21:17;;;;;;;6.90;4.45;;;;;;;8.14;91.54;96351.84;5030244;28;20045;-57
2022/12/15 08:23:44;;;;;;;24.73;15.35;;;;;;;8.43;92.03;96427.59;5043153;28;20048;-59
2022/12/15 08:26:13;;;;;;;10.48;7.10;;;;;;;8.11;94.00;96344.31;5034443;28;20049;-59
2022/12/15 08:28:41;;;;;;;7.72;5.07;;;;;;;8.39;93.81;96388.13;5077243;28;20048;-60
2022/12/15 08:31:10;;;;;;;8.60;5.38;;;;;;;8.55;94.61;96391.53;5062185;28;20052;-57
2022/12/15 08:33:38;;;;;;;9.18;5.93;;;;;;;8.59;93.54;96384.06;5062125;28;20071;-54
2022/12/15 08:36:07;;;;;;;7.60;5.45;;;;;;;8.79;91.70;96396.56;5062905;28;20072;-55
2022/12/15 08:38:35;;;;;;;8.48;5.47;;;;;;;8.86;91.61;96380.91;5063069;28;20049;-54
2022/12/15 08:41:11;;;;;;;11.20;6.88;;;;;;;8.82;92.96;96390.31;5062452;28;20056;-54
2022/12/15 08:43:39;;;;;;;7.00;4.70;;;;;;;9.12;91.22;96388.28;5063226;28;20048;-59
2022/12/15 08:46:14;;;;;;;10.07;6.03;;;;;;;8.80;89.88;96354.00;5062511;28;20057;-61
2022/12/15 08:48:42;;;;;;;9.63;6.43;;;;;;;9.19;90.67;96388.41;5060291;28;20102;-62
2022/12/15 08:51:09;;;;;;;10.43;7.05;;;;;;;9.32;89.89;96389.72;5059202;28;20122;-64
2022/12/15 08:53:35;;;;;;;13.20;7.47;;;;;;;7.59;88.39;96105.31;5066852;28;20048;-55
2022/12/15 08:56:08;;;;;;;11.90;6.80;;;;;;;9.18;89.04;96339.84;5063992;28;20078;-66
2022/12/15 08:58:35;;;;;;;10.17;6.30;;;;;;;9.50;89.87;96362.28;5062438;28;20056;-61
2022/12/15 09:01:04;;;;;;;9.35;6.80;;;;;;;8.86;87.64;96237.31;5061336;28;20055;-62
2022/12/15 09:03:32;;;;;;;10.57;7.20;;;;;;;10.13;85.70;96393.31;5062618;28;20538;-59
2022/12/15 09:06:11;;;;;;;14.70;9.40;;;;;;;10.11;86.50;96377.09;5062509;28;20045;-61
2022/12/15 09:08:37;;;;;;;13.55;9.65;;;;;;;10.28;86.24;96384.75;5061622;28;20151;-57
2022/12/15 09:11:04;;;;;;;14.27;10.23;;;;;;;9.27;85.78;96240.03;5063058;28;20088;-58
2022/12/15 09:13:31;;;;;;;17.52;11.80;;;;;;;10.60;86.07;96385.75;5061643;28;20048;-60
2022/12/15 09:16:07;;;;;;;16.00;10.98;;;;;;;10.62;84.44;96382.59;5062316;28;20045;-61
2022/12/15 09:18:36;;;;;;;15.13;10.38;;;;;;;10.33;86.08;96337.31;5062915;28;20068;-60
2022/12/15 09:21:05;;;;;;;16.02;10.02;;;;;;;10.73;86.64;96367.59;5062087;28;20048;-62
2022/12/15 09:23:33;;;;;;;16.25;9.00;;;;;;;10.39;84.25;96330.25;5062020;28;20253;-61
2022/12/15 09:26:09;;;;;;;13.85;8.20;;;;;;;11.05;84.41;96378.06;5060704;28;20411;-59
2022/12/15 09:28:38;;;;;;;11.63;7.65;;;;;;;11.37;83.98;96384.50;5062379;28;20144;-60
2022/12/15 09:31:08;;;;;;;10.30;6.90;;;;;;;11.55;83.67;96391.72;5062443;28;20594;-58
2022/12/15 09:33:35;;;;;;;12.55;7.15;;;;;;;11.35;80.04;96370.25;5057397;28;20105;-64
2022/12/15 09:36:03;;;;;;;12.15;7.78;;;;;;;11.40;81.10;96372.63;5059227;28;20057;-65
2022/12/15 09:38:32;;;;;;;15.15;9.20;;;;;;;11.67;81.63;96362.81;5062053;28;20155;-60
2022/12/15 09:41:07;;;;;;;7.75;5.90;;;;;;;11.79;79.29;96351.38;5062164;28;20048;-69
2022/12/15 09:43:43;;;;;;;7.13;5.25;;;;;;;12.16;78.41;96382.31;5060698;28;20150;-63
2022/12/15 09:47:00;;;;;;;6.90;5.35;;;;;;;12.37;80.07;96381.50;5060701;28;20044;-68
2022/12/15 09:49:51;;;;;;;5.57;4.40;;;;;;;12.38;76.47;96389.44;5077183;28;20052;-63
2022/12/15 09:52:27;;;;;;;6.70;5.00;;;;;;;12.49;75.76;96404.09;5061125;28;20048;-62
2022/12/15 09:54:56;;;;;;;11.57;8.52;;;;;;;12.70;74.62;96398.53;5059316;28;20063;-56
2022/12/15 09:57:35;;;;;;;8.73;5.88;;;;;;;12.65;75.55;96404.50;5064092;28;20048;-58
2022/12/15 10:00:20;;;;;;;7.47;6.10;;;;;;;12.36;74.56;96341.81;5064713;28;20098;-62
2022/12/15 10:03:19;;;;;;;7.22;5.57;;;;;;;12.91;75.87;96398.50;5066295;28;20106;-55
2022/12/15 10:06:17;;;;;;;5.90;4.80;;;;;;;12.92;72.31;96407.63;5066196;28;20087;-60
2022/12/15 10:09:17;;;;;;;4.53;4.10;;;;;;;13.00;71.92;96404.44;5065999;28;20052;-62
2022/12/15 10:11:49;;;;;;;5.03;4.43;;;;;;;13.08;72.93;96406.03;5064466;28;20052;-61
2022/12/15 10:14:26;;;;;;;7.63;5.43;;;;;;;12.99;72.32;96391.69;5066294;28;20048;-61
2022/12/15 10:17:20;;;;;;;7.55;5.97;;;;;;;13.09;73.80;96402.03;5065709;28;20113;-63
2022/12/15 10:20:17;;;;;;;8.73;5.93;;;;;;;13.27;73.32;96399.19;5065935;28;20545;-56
2022/12/15 10:22:45;;;;;;;7.15;5.40;;;;;;;13.36;73.34;96400.34;5065449;28;20061;-60
2022/12/15 10:25:25;;;;;;;6.03;4.90;;;;;;;13.43;74.17;96405.09;5065800;28;20060;-61
2022/12/15 10:28:14;;;;;;;6.43;4.63;;;;;;;13.57;72.61;96407.81;5065588;28;20056;-60
2022/12/15 10:30:50;;;;;;;7.18;5.15;;;;;;;13.50;74.27;96411.41;5064938;28;20121;-62
2022/12/15 10:33:20;;;;;;;6.55;4.88;;;;;;;13.31;74.02;96417.44;5062866;28;20053;-57
2022/12/15 10:35:47;;;;;;;6.07;4.88;;;;;;;13.61;72.82;96417.72;5063061;28;20079;-57
2022/12/15 10:38:39;;;;;;;4.72;4.22;;;;;;;13.67;73.53;96398.63;5061797;28;20056;-58
2022/12/15 10:41:14;;;;;;;19.98;8.77;;;;;;;13.35;74.63;96353.47;5064729;28;20541;-66
2022/12/15 10:43:43;;;;;;;5.93;4.63;;;;;;;13.79;73.80;96411.25;5063839;28;20084;-63
2022/12/15 10:46:13;;;;;;;6.45;4.10;;;;;;;13.70;73.27;96412.50;5065812;28;20615;-63
2022/12/15 10:48:42;;;;;;;4.50;3.78;;;;;;;13.67;74.08;96416.09;5064189;28;20563;-56
2022/12/15 10:51:42;;;;;;;4.70;4.20;;;;;;;13.77;75.09;96403.31;5065487;28;20205;-59
2022/12/15 10:54:15;;;;;;;5.15;4.15;;;;;;;12.56;73.33;96217.97;5065192;28;20135;-58
2022/12/15 10:56:48;;;;;;;5.32;4.13;;;;;;;13.70;73.59;96387.44;5064463;28;20053;-57
2022/12/15 10:59:24;;;;;;;4.03;3.60;;;;;;;13.77;74.25;96414.44;5065265;28;20059;-56
2022/12/15 11:01:51;;;;;;;4.85;3.90;;;;;;;13.69;74.36;96407.34;5064867;28;20126;-62
2022/12/15 11:04:28;;;;;;;4.07;3.58;;;;;;;13.69;73.96;96419.28;5064922;28;20048;-56
2022/12/15 11:07:00;;;;;;;3.75;3.22;;;;;;;13.20;73.22;96341.59;5064773;28;20067;-62
2022/12/15 11:09:36;;;;;;;6.30;3.70;;;;;;;13.59;73.55;96381.16;5064028;28;20048;-59
2022/12/15 11:15:22;;;;;;;5.22;3.70;;;;;;;13.49;73.94;96387.56;5052367;28;20075;-59
2022/12/15 11:17:58;;;;;;;4.95;3.80;;;;;;;13.69;73.88;96397.00;5062926;28;20052;-58
2022/12/15 11:20:34;;;;;;;4.55;4.13;;;;;;;13.22;74.26;96353.13;5059486;28;20048;-60
2022/12/15 11:23:12;;;;;;;5.20;3.78;;;;;;;14.01;74.34;96401.56;5063744;28;20076;-57
2022/12/15 11:25:53;;;;;;;4.90;4.20;;;;;;;13.54;71.51;96295.34;5054021;28;20048;-59
2022/12/15 11:28:47;;;;;;;7.05;4.45;;;;;;;14.09;70.72;96369.69;5060130;28;20048;-60
2022/12/15 11:31:25;;;;;;;5.00;4.53;;;;;;;14.33;71.51;96391.03;5062762;28;20068;-67
2022/12/15 11:33:53;;;;;;;4.68;4.20;;;;;;;14.63;71.57;96430.19;5068057;28;20099;-58
2022/12/15 11:36:49;;;;;;;4.88;4.22;;;;;;;14.50;69.87;96379.75;5062716;28;20045;-64
2022/12/15 11:39:31;;;;;;;6.28;4.78;;;;;;;14.18;70.62;96328.25;5062323;28;20135;-59
2022/12/15 11:42:29;;;;;;;5.57;4.90;;;;;;;14.63;70.83;96405.09;5068061;28;20052;-60
2022/12/15 11:45:22;;;;;;;6.10;5.40;;;;;;;14.74;70.97;96422.53;5065285;28;20542;-61
2022/12/15 11:47:58;;;;;;;12.20;6.43;;;;;;;13.78;71.10;96398.56;5030788;28;20144;-61
2022/12/15 11:50:29;;;;;;;7.40;5.40;;;;;;;13.99;72.67;96412.34;5062637;28;20051;-61
2022/12/15 11:53:16;;;;;;;7.72;5.50;;;;;;;14.38;73.29;96421.25;5063183;28;20052;-62
2022/12/15 11:55:55;;;;;;;21.20;11.35;;;;;;;14.46;71.93;96426.34;5062624;28;20053;-68
2022/12/15 11:58:34;;;;;;;15.60;8.43;;;;;;;14.06;73.64;96421.44;5072216;28;20143;-67
2022/12/15 12:01:38;;;;;;;10.15;6.10;;;;;;;14.24;73.31;96422.13;5061652;28;20057;-60
2022/12/15 12:04:16;;;;;;;6.60;5.63;;;;;;;14.36;73.21;96424.44;5064633;28;20427;-59
2022/12/15 12:07:17;;;;;;;7.15;4.88;;;;;;;14.26;72.11;96444.81;5063579;28;20163;-66
2022/12/15 12:09:55;;;;;;;6.30;5.10;;;;;;;14.02;73.80;96436.59;5063857;28;20317;-64
2022/12/15 12:12:31;;;;;;;4.10;3.70;;;;;;;13.94;72.62;96440.63;5059280;28;20474;-67
2022/12/15 12:15:10;;;;;;;3.97;3.58;;;;;;;13.87;72.67;96435.06;5059627;28;20075;-58
2022/12/15 12:17:48;;;;;;;5.45;4.85;;;;;;;13.78;74.23;96448.66;5059810;28;20141;-58
2022/12/15 12:20:18;;;;;;;6.75;5.10;;;;;;;13.87;75.26;96449.78;5068659;28;20053;-57
2022/12/15 12:23:01;;;;;;;4.80;4.10;;;;;;;13.86;74.46;96455.78;5060251;28;20055;-58
2022/12/15 12:25:38;;;;;;;7.22;5.53;;;;;;;13.67;75.33;96427.22;5062382;28;20056;-61
2022/12/15 12:28:33;;;;;;;7.03;3.90;;;;;;;14.03;74.53;96460.44;5059603;28;20064;-63
2022/12/15 12:31:03;;;;;;;9.07;5.70;;;;;;;13.66;74.01;96414.53;5057534;28;20059;-56
2022/12/15 12:33:35;;;;;;;8.38;6.35;;;;;;;13.75;73.54;96432.78;5061555;28;20137;-60
2022/12/15 12:36:09;;;;;;;9.30;6.33;;;;;;;14.13;73.34;96462.38;5063060;28;20545;-59
2022/12/15 12:38:45;;;;;;;7.57;5.13;;;;;;;13.77;73.80;96410.91;5067896;28;20049;-59
2022/12/15 12:41:39;;;;;;;6.35;5.00;;;;;;;14.17;73.76;96466.72;5062916;28;20097;-62
2022/12/15 12:44:36;;;;;;;9.02;5.95;;;;;;;14.10;73.96;96477.13;5057721;28;20495;-60
2022/12/15 12:47:28;;;;;;;7.40;5.45;;;;;;;14.16;73.83;96525.63;5062561;28;20044;-61
2022/12/15 12:50:21;;;;;;;6.95;5.20;;;;;;;14.12;74.05;96467.16;5050319;28;20084;-57
2022/12/15 12:53:12;;;;;;;5.00;4.50;;;;;;;14.27;73.19;96492.97;5062061;28;20060;-55
2022/12/15 12:55:42;;;;;;;6.07;4.80;;;;;;;14.33;71.73;96502.47;5058185;28;20143;-66
2022/12/15 12:58:41;;;;;;;5.95;4.20;;;;;;;14.30;72.03;96503.28;5063278;28;20048;-58
2022/12/15 13:01:10;;;;;;;5.72;4.90;;;;;;;14.30;72.79;96503.28;5063308;28;20048;-59
2022/12/15 13:03:41;;;;;;;6.05;4.55;;;;;;;14.42;71.68;96511.16;5061843;28;20804;-60
2022/12/15 13:06:49;;;;;;;5.13;4.53;;;;;;;14.40;71.63;96505.22;5063608;28;20064;-58
2022/12/15 13:09:16;;;;;;;6.78;5.78;;;;;;;14.46;70.58;96507.16;5052909;28;20550;-58
2022/12/15 13:11:51;;;;;;;3.90;3.53;;;;;;;14.48;69.98;96520.72;5060921;28;20048;-58
2022/12/15 13:14:22;;;;;;;4.47;4.07;;;;;;;14.37;70.58;96519.97;5050622;28;20052;-60
2022/12/15 13:17:24;;;;;;;;;;;;;;;14.29;71.19;96543.50;5063187;28;20708;-55
2022/12/15 13:19:55;;;;;;;5.35;3.97;;;;;;;14.19;71.27;96541.53;5020610;28;19928;-57
2022/12/15 13:22:26;;;;;;;5.18;4.20;;;;;;;13.58;71.14;96457.50;5040990;28;20178;-59
2022/12/15 13:24:55;;;;;;;5.10;4.43;;;;;;;14.28;71.12;96555.84;5043425;28;20489;-60
2022/12/15 13:27:22;;;;;;;7.45;5.05;;;;;;;13.68;71.74;96481.72;5048739;28;20680;-61
2022/12/15 13:30:04;;;;;;;5.82;5.00;;;;;;;14.24;71.22;96572.56;5055490;28;20485;-60
2022/12/15 13:32:31;;;;;;;6.05;4.75;;;;;;;14.25;70.78;96576.16;5061396;28;20481;-58
2022/12/15 13:35:22;;;;;;;7.97;4.95;;;;;;;14.10;72.10;96571.81;5065109;28;20153;-54
2022/12/15 13:37:51;;;;;;;58.72;29.08;;;;;;;14.01;72.61;96572.25;5065053;28;20097;-63
2022/12/15 13:40:33;;;;;;;69.78;34.35;;;;;;;14.01;72.89;96574.22;5062721;28;20048;-64
2022/12/15 13:43:03;;;;;;;26.42;13.65;;;;;;;13.97;72.79;96567.88;5064182;28;20048;-59
2022/12/15 13:45:40;;;;;;;14.40;8.27;;;;;;;13.92;72.99;96573.88;5062933;28;20574;-58
2022/12/15 13:48:19;;;;;;;11.05;7.68;;;;;;;13.68;73.29;96544.91;5061937;28;20075;-59
2022/12/15 13:51:01;;;;;;;11.43;7.68;;;;;;;13.82;73.35;96571.91;5065040;28;20044;-53
2022/12/15 13:53:36;;;;;;;11.30;6.80;;;;;;;13.79;73.68;96575.50;5064279;28;20064;-53
2022/12/15 13:56:33;;;;;;;12.70;8.05;;;;;;;13.70;74.45;96573.94;5066992;28;20155;-54
2022/12/15 13:59:12;;;;;;;18.17;11.32;;;;;;;13.49;75.43;96565.66;5057528;28;20139;-53
2022/12/15 14:01:48;;;;;;;22.55;14.20;;;;;;;13.54;75.11;96568.03;5066435;28;20048;-53
2022/12/15 14:04:17;;;;;;;26.73;15.68;;;;;;;13.27;76.55;96530.72;5066236;28;20060;-54
2022/12/15 14:06:52;;;;;;;19.67;12.95;;;;;;;13.47;76.89;96556.91;5064546;28;20193;-53
2022/12/15 14:09:29;;;;;;;62.17;40.30;;;;;;;12.71;77.66;96477.91;5064800;28;20101;-54
2022/12/15 14:11:57;;;;;;;36.22;23.35;;;;;;;13.33;77.63;96568.06;5064970;28;20143;-53
2022/12/15 14:14:27;;;;;;;62.83;37.08;;;;;;;12.95;78.70;96531.91;5065201;28;20059;-54
2022/12/15 14:17:00;;;;;;;65.60;38.95;;;;;;;13.08;80.51;96575.63;5064846;28;20048;-52